Time;durP1;ratioP1;P1;durP2;ratioP2;P2;SDS_P1;SDS_P2;PMS_P1;PMS_P2;Temp;Humidity;BMP_temperature;BMP_pressure;BME280_temperature;BME280_humidity;BME280_pressure;Samples;Min_cycle;Max_cycle;Signal;HPM_P1;HPM_P2
2023/07/21 00:02:22;;;;;;;6.80;5.63;;;;;;;15.60;74.71;101020.03;3541004;40;20078;-65
2023/07/21 00:04:48;;;;;;;6.57;5.97;;;;;;;15.55;75.00;101021.28;3537632;40;20182;-64
2023/07/21 00:07:14;;;;;;;6.68;6.18;;;;;;;15.54;75.24;101024.97;3534505;40;20046;-64
2023/07/21 00:09:39;;;;;;;6.68;6.07;;;;;;;15.46;75.33;101016.59;3531985;40;20110;-64
2023/07/21 00:12:05;;;;;;;6.78;6.20;;;;;;;15.32;74.99;100996.00;3534413;40;20069;-65
2023/07/21 00:14:31;;;;;;;7.00;6.30;;;;;;;15.49;75.15;101020.91;3537536;40;20058;-64
2023/07/21 00:16:56;;;;;;;7.22;6.50;;;;;;;15.49;75.70;101020.91;3543167;40;20140;-63
2023/07/21 00:19:22;;;;;;;7.20;6.20;;;;;;;15.45;76.17;101005.88;3538572;40;20084;-63
2023/07/21 00:21:49;;;;;;;7.80;7.00;;;;;;;15.47;75.98;101017.44;3537289;40;20339;-64
2023/07/21 00:24:15;;;;;;;8.70;7.25;;;;;;;15.49;76.57;101010.91;3533624;40;20055;-64
2023/07/21 00:26:41;;;;;;;7.28;6.57;;;;;;;15.50;76.15;101015.34;3532779;40;20054;-65
2023/07/21 00:29:07;;;;;;;7.30;6.60;;;;;;;14.95;76.25;100911.41;3535345;40;20101;-64
2023/07/21 00:31:32;;;;;;;7.28;6.53;;;;;;;15.51;76.30;101000.84;3536782;40;20057;-64
2023/07/21 00:33:58;;;;;;;6.93;6.32;;;;;;;15.52;76.12;101004.41;3537679;40;20062;-63
2023/07/21 00:36:24;;;;;;;6.88;6.20;;;;;;;15.52;76.17;100999.84;3534360;40;20081;-64
2023/07/21 00:38:50;;;;;;;6.88;6.28;;;;;;;15.46;76.60;100985.94;3533621;40;20374;-63
2023/07/21 00:41:17;;;;;;;8.25;6.72;;;;;;;15.51;76.88;100997.28;3535924;40;20074;-64
2023/07/21 00:43:43;;;;;;;7.40;6.70;;;;;;;14.95;76.18;100911.41;3537825;40;20130;-64
2023/07/21 00:46:11;;;;;;;6.70;6.10;;;;;;;14.93;76.05;100904.38;3535031;40;20458;-63
2023/07/21 00:48:37;;;;;;;7.57;6.35;;;;;;;15.47;76.08;100999.34;3535118;40;20057;-64
2023/07/21 00:51:03;;;;;;;6.95;6.20;;;;;;;15.45;76.31;100992.34;3539193;40;20070;-62
2023/07/21 00:53:30;;;;;;;7.03;6.40;;;;;;;15.40;75.92;100984.56;3534765;40;20065;-63
2023/07/21 00:55:56;;;;;;;7.43;6.82;;;;;;;15.41;76.46;100997.09;3537580;40;20058;-63
2023/07/21 00:58:24;;;;;;;7.35;6.65;;;;;;;15.36;77.09;100984.94;3535896;40;20073;-64
2023/07/21 01:00:49;;;;;;;7.93;7.05;;;;;;;15.32;76.99;100976.19;3537041;40;20065;-64
2023/07/21 01:03:18;;;;;;;6.93;6.32;;;;;;;15.32;77.28;100981.63;3536175;40;20054;-64
2023/07/21 01:05:51;;;;;;;7.05;6.45;;;;;;;15.28;77.23;100972.00;3536866;40;20425;-63
2023/07/21 01:08:19;;;;;;;6.93;6.33;;;;;;;15.32;76.63;100977.06;3533047;40;20559;-64
2023/07/21 01:10:48;;;;;;;7.53;6.82;;;;;;;14.76;76.97;100878.66;3533715;40;20124;-64
2023/07/21 01:13:16;;;;;;;7.25;6.47;;;;;;;14.79;77.01;100887.41;3534113;40;20047;-62
2023/07/21 01:15:55;;;;;;;7.57;6.53;;;;;;;15.15;76.71;100952.28;3536230;40;20050;-63
2023/07/21 01:18:22;;;;;;;9.75;7.32;;;;;;;15.17;76.62;100958.44;3532721;40;20492;-64
2023/07/21 01:20:50;;;;;;;7.70;7.00;;;;;;;15.09;77.20;100957.19;3534606;40;20316;-63
2023/07/21 01:23:38;;;;;;;9.43;7.28;;;;;;;14.57;77.00;100876.53;3533005;40;20369;-63
2023/07/21 01:26:07;;;;;;;7.57;6.95;;;;;;;15.03;77.33;100968.53;3532065;40;20054;-63
2023/07/21 01:28:35;;;;;;;7.82;7.13;;;;;;;14.89;77.09;100947.06;3531774;40;20058;-63
2023/07/21 01:31:02;;;;;;;8.15;7.35;;;;;;;14.96;77.42;100963.69;3533837;40;20144;-63
2023/07/21 01:33:31;;;;;;;7.85;7.15;;;;;;;14.94;78.38;100960.22;3537590;40;20353;-63
2023/07/21 01:36:00;;;;;;;7.65;6.95;;;;;;;14.93;77.96;100964.78;3537695;40;20063;-63
2023/07/21 01:38:29;;;;;;;8.07;7.38;;;;;;;14.91;78.11;100955.94;3533121;40;20055;-64
2023/07/21 01:40:55;;;;;;;8.23;7.43;;;;;;;14.86;78.04;100953.59;3534035;40;20282;-63
2023/07/21 01:43:23;;;;;;;8.45;7.68;;;;;;;14.82;78.01;100952.09;3532472;40;20145;-63
2023/07/21 01:45:49;;;;;;;8.25;7.45;;;;;;;14.80;78.57;100958.59;3536164;40;20057;-63
2023/07/21 01:48:15;;;;;;;8.13;7.35;;;;;;;14.76;78.64;100941.75;3533046;40;20290;-63
2023/07/21 01:50:43;;;;;;;8.38;7.68;;;;;;;14.75;78.71;100950.88;3535717;40;20057;-64
2023/07/21 01:53:19;;;;;;;7.90;7.13;;;;;;;14.66;79.11;100932.63;3536427;40;20056;-63
2023/07/21 01:56:24;;;;;;;9.30;7.55;;;;;;;14.67;78.68;100947.00;3533718;40;20051;-63
2023/07/21 01:58:53;;;;;;;8.13;7.43;;;;;;;14.29;78.69;100883.16;3532060;40;20601;-63
2023/07/21 02:01:20;;;;;;;8.52;7.65;;;;;;;14.63;78.87;100949.09;3537515;40;20115;-64
2023/07/21 02:03:49;;;;;;;8.27;7.55;;;;;;;14.61;79.15;100938.38;3536131;40;20160;-63
2023/07/21 02:06:17;;;;;;;8.10;7.32;;;;;;;14.09;79.05;100850.41;3533737;40;20405;-64
2023/07/21 02:08:43;;;;;;;8.27;7.47;;;;;;;14.51;79.14;100926.53;3542185;40;20564;-63
2023/07/21 02:11:10;;;;;;;8.80;7.90;;;;;;;14.55;79.06;100932.59;3535111;40;20117;-64
2023/07/21 02:13:35;;;;;;;8.18;7.30;;;;;;;14.49;79.16;100923.06;3533895;40;20066;-64
2023/07/21 02:16:02;;;;;;;8.57;7.78;;;;;;;14.47;79.03;100918.78;3533727;40;20101;-63
2023/07/21 02:18:27;;;;;;;8.00;7.30;;;;;;;14.51;79.54;100929.25;3532864;40;20061;-64
2023/07/21 02:20:53;;;;;;;8.52;7.43;;;;;;;14.28;79.51;100894.97;3535912;40;20063;-64
2023/07/21 02:23:19;;;;;;;7.60;6.80;;;;;;;14.49;79.04;100931.16;3535931;40;20106;-64
2023/07/21 02:25:44;;;;;;;8.38;7.63;;;;;;;14.48;79.24;100924.03;3538829;40;20053;-64
2023/07/21 02:28:10;;;;;;;8.00;7.15;;;;;;;13.90;78.97;100829.31;3536407;40;20073;-65
2023/07/21 02:30:36;;;;;;;8.13;7.43;;;;;;;14.41;78.89;100914.69;3536395;40;20323;-64
2023/07/21 02:33:02;;;;;;;7.22;6.60;;;;;;;14.46;79.14;100922.44;3533531;40;20399;-65
2023/07/21 02:35:28;;;;;;;7.63;6.65;;;;;;;14.47;79.26;100930.44;3536338;40;20071;-64
2023/07/21 02:37:54;;;;;;;7.40;6.70;;;;;;;13.90;78.98;100828.47;3537515;40;20077;-65
2023/07/21 02:40:19;;;;;;;8.00;7.15;;;;;;;14.45;78.75;100924.28;3534873;40;20100;-65
2023/07/21 02:42:45;;;;;;;7.35;6.70;;;;;;;14.38;79.23;100920.31;3535123;40;20054;-64
2023/07/21 02:45:11;;;;;;;8.25;7.45;;;;;;;14.31;79.97;100930.75;3535759;40;20449;-65
2023/07/21 02:47:37;;;;;;;7.78;6.97;;;;;;;14.27;81.17;100920.25;3540662;40;20057;-64
2023/07/21 02:50:09;;;;;;;8.13;7.32;;;;;;;14.25;81.73;100912.28;3534238;40;20054;-64
2023/07/21 02:52:38;;;;;;;8.07;7.32;;;;;;;14.17;80.75;100909.28;3536651;40;20057;-64
2023/07/21 02:55:06;;;;;;;8.90;8.10;;;;;;;14.17;81.21;100918.25;3533961;40;20046;-65
2023/07/21 02:57:32;;;;;;;8.50;7.55;;;;;;;14.13;81.06;100911.38;3535183;40;20046;-65
2023/07/21 02:59:58;;;;;;;7.68;6.95;;;;;;;14.10;80.56;100908.88;3536570;40;20073;-65
2023/07/21 03:02:23;;;;;;;10.48;8.57;;;;;;;13.63;80.35;100839.50;3536264;40;20077;-65
2023/07/21 03:04:49;;;;;;;9.05;8.05;;;;;;;14.03;80.86;100912.19;3536610;40;20058;-66
2023/07/21 03:07:16;;;;;;;9.98;8.20;;;;;;;14.00;80.78;100915.97;3538254;40;20090;-64
2023/07/21 03:09:42;;;;;;;8.77;7.57;;;;;;;13.49;80.69;100834.25;3535231;40;20061;-64
2023/07/21 03:12:08;;;;;;;8.68;7.75;;;;;;;13.97;80.82;100918.03;3531834;40;20646;-64
2023/07/21 03:14:33;;;;;;;10.18;8.45;;;;;;;13.93;80.76;100914.72;3531950;40;20306;-64
2023/07/21 03:16:59;;;;;;;9.57;7.78;;;;;;;13.89;80.72;100907.78;3538210;40;20050;-64
2023/07/21 03:19:24;;;;;;;11.60;7.85;;;;;;;13.81;81.18;100904.81;3533439;40;20072;-64
2023/07/21 03:21:50;;;;;;;8.88;7.95;;;;;;;13.31;81.61;100831.94;3533784;40;20046;-64
2023/07/21 03:24:16;;;;;;;9.00;8.10;;;;;;;13.82;81.65;100911.94;3531241;40;20441;-64
2023/07/21 03:26:41;;;;;;;11.07;7.90;;;;;;;13.72;82.32;100900.94;3534530;40;20073;-64
2023/07/21 03:29:07;;;;;;;10.15;9.10;;;;;;;13.22;82.08;100817.25;3535196;40;20043;-64
2023/07/21 03:31:34;;;;;;;9.43;8.52;;;;;;;13.72;82.15;100911.75;3539336;40;20066;-64
2023/07/21 03:33:59;;;;;;;12.00;8.25;;;;;;;13.74;82.65;100914.34;3537956;40;20461;-64
2023/07/21 03:36:25;;;;;;;11.18;8.25;;;;;;;13.74;82.56;100914.34;3534492;40;20082;-64
2023/07/21 03:38:50;;;;;;;11.20;8.65;;;;;;;13.72;81.96;100919.00;3533365;40;20301;-64
2023/07/21 03:41:16;;;;;;;10.55;9.10;;;;;;;13.69;81.37;100912.84;3535794;40;20451;-65
2023/07/21 03:43:42;;;;;;;11.00;8.85;;;;;;;13.09;81.56;100816.41;3532339;40;20318;-65
2023/07/21 03:46:08;;;;;;;9.70;8.80;;;;;;;13.65;81.60;100915.88;3534506;40;20057;-64
2023/07/21 03:48:34;;;;;;;9.70;8.65;;;;;;;13.61;82.12;100907.16;3533685;40;20129;-65
2023/07/21 03:51:04;;;;;;;10.32;8.82;;;;;;;13.55;81.77;100904.91;3536735;40;20052;-65
2023/07/21 03:53:31;;;;;;;11.50;9.27;;;;;;;13.55;82.39;100915.69;3533996;40;20066;-65
2023/07/21 03:55:58;;;;;;;9.88;8.68;;;;;;;13.57;81.83;100908.31;3535360;40;20053;-65
2023/07/21 03:58:25;;;;;;;10.88;8.93;;;;;;;13.57;82.39;100911.03;3536373;40;20465;-65
2023/07/21 04:00:51;;;;;;;9.95;8.63;;;;;;;13.56;81.75;100909.31;3533518;40;20120;-66
2023/07/21 04:03:19;;;;;;;9.65;8.75;;;;;;;13.58;82.29;100904.66;3535850;40;20410;-66
2023/07/21 04:05:45;;;;;;;15.13;9.77;;;;;;;13.50;82.32;100890.00;3535099;40;20065;-65
2023/07/21 04:08:11;;;;;;;11.38;9.07;;;;;;;13.60;82.57;100901.84;3533240;40;20129;-66
2023/07/21 04:10:41;;;;;;;12.38;9.88;;;;;;;13.60;81.91;100897.28;3532684;40;20362;-64
2023/07/21 04:13:08;;;;;;;11.80;10.63;;;;;;;13.56;82.20;100898.50;3535870;40;20136;-64
2023/07/21 04:15:34;;;;;;;11.88;10.38;;;;;;;13.53;82.58;100889.78;3536483;40;20346;-64
2023/07/21 04:17:59;;;;;;;11.50;10.30;;;;;;;13.01;82.55;100797.22;3535789;40;20074;-64
2023/07/21 04:20:25;;;;;;;11.88;10.77;;;;;;;13.12;82.81;100826.97;3534927;40;20297;-64
2023/07/21 04:22:51;;;;;;;12.23;11.13;;;;;;;13.52;83.61;100886.22;3534481;40;20322;-64
2023/07/21 04:25:18;;;;;;;11.90;10.70;;;;;;;13.47;83.40;100875.72;3534643;40;20073;-64
2023/07/21 04:27:50;;;;;;;11.48;10.23;;;;;;;13.54;83.15;100886.97;3535859;40;20042;-65
2023/07/21 04:30:17;;;;;;;12.85;10.88;;;;;;;13.07;83.06;100802.19;3532180;40;20070;-64
2023/07/21 04:32:42;;;;;;;11.70;10.70;;;;;;;13.55;83.96;100888.69;3532936;40;20058;-64
2023/07/21 04:35:09;;;;;;;14.10;12.70;;;;;;;13.57;83.54;100883.16;3532794;40;20070;-63
2023/07/21 04:37:38;;;;;;;14.10;11.40;;;;;;;13.05;83.40;100804.09;3536643;40;20062;-63
2023/07/21 04:40:06;;;;;;;16.23;12.55;;;;;;;13.60;83.56;100889.19;3539837;40;20058;-64
2023/07/21 04:42:33;;;;;;;14.23;12.05;;;;;;;13.55;83.98;100875.19;3536094;40;20050;-64
2023/07/21 04:45:00;;;;;;;13.75;11.82;;;;;;;13.67;84.42;100895.91;3536193;40;20361;-63
2023/07/21 04:47:25;;;;;;;13.93;12.20;;;;;;;13.71;84.05;100888.41;3538413;40;20046;-64
2023/07/21 04:49:52;;;;;;;20.05;13.10;;;;;;;13.37;83.41;100812.59;3539963;40;20081;-64
2023/07/21 04:52:18;;;;;;;16.23;12.40;;;;;;;13.84;83.91;100888.38;3534899;40;20488;-63
2023/07/21 04:54:44;;;;;;;13.82;12.43;;;;;;;13.83;83.72;100879.41;3533824;40;20058;-63
2023/07/21 04:57:10;;;;;;;15.57;13.30;;;;;;;13.90;84.30;100887.91;3534291;40;20124;-64
2023/07/21 04:59:36;;;;;;;14.10;12.75;;;;;;;13.95;84.46;100883.00;3534218;40;20062;-64
2023/07/21 05:02:02;;;;;;;15.07;13.55;;;;;;;13.97;84.25;100878.38;3534739;40;20065;-64
2023/07/21 05:04:28;;;;;;;16.50;14.35;;;;;;;14.03;84.29;100877.91;3533873;40;20070;-64
2023/07/21 05:06:54;;;;;;;16.08;14.38;;;;;;;14.12;84.00;100882.63;3536406;40;20062;-63
2023/07/21 05:09:19;;;;;;;15.77;14.02;;;;;;;13.65;84.05;100780.81;3534240;40;20063;-63
2023/07/21 05:11:46;;;;;;;16.52;13.80;;;;;;;13.70;84.23;100778.63;3536646;40;20089;-64
2023/07/21 05:14:13;;;;;;;14.20;12.73;;;;;;;14.42;83.03;100872.25;3534822;40;20425;-63
2023/07/21 05:16:39;;;;;;;15.00;13.52;;;;;;;14.51;82.99;100885.97;3534146;40;20127;-62
2023/07/21 05:19:04;;;;;;;14.88;13.38;;;;;;;14.21;82.37;100809.88;3533272;40;20055;-63
2023/07/21 05:21:30;;;;;;;15.20;13.80;;;;;;;14.67;81.89;100877.53;3535830;40;20090;-63
2023/07/21 05:23:56;;;;;;;14.25;12.88;;;;;;;14.24;81.49;100771.78;3536042;40;20055;-62
2023/07/21 05:26:22;;;;;;;15.13;13.63;;;;;;;14.89;81.33;100865.88;3539156;40;20084;-62
2023/07/21 05:28:49;;;;;;;14.05;12.75;;;;;;;14.99;81.23;100876.84;3533424;40;20098;-62
2023/07/21 05:31:16;;;;;;;15.27;13.40;;;;;;;14.63;80.17;100795.75;3534164;40;20382;-62
2023/07/21 05:33:42;;;;;;;14.52;13.23;;;;;;;14.80;79.85;100799.81;3535807;40;20055;-62
2023/07/21 05:36:11;;;;;;;13.82;12.50;;;;;;;15.32;79.71;100882.25;3532967;40;20379;-63
2023/07/21 05:38:37;;;;;;;13.27;12.07;;;;;;;15.46;79.28;100888.41;3535642;40;20084;-63
2023/07/21 05:41:05;;;;;;;14.38;12.43;;;;;;;15.08;78.04;100806.56;3532504;40;20065;-63
2023/07/21 05:43:31;;;;;;;13.15;11.88;;;;;;;15.18;78.46;100800.41;3533969;40;20086;-63
2023/07/21 05:45:58;;;;;;;13.80;12.35;;;;;;;15.73;77.87;100883.47;3538180;40;20054;-62
2023/07/21 05:48:26;;;;;;;14.25;12.90;;;;;;;15.84;77.20;100879.84;3536821;40;20087;-62
2023/07/21 05:50:52;;;;;;;13.25;12.00;;;;;;;15.91;76.33;100878.34;3533799;40;20174;-64
2023/07/21 05:53:19;;;;;;;13.77;12.45;;;;;;;16.04;76.21;100875.47;3533844;40;20105;-64
2023/07/21 05:55:46;;;;;;;13.30;11.90;;;;;;;15.88;76.16;100846.06;3536146;40;20046;-64
2023/07/21 05:58:12;;;;;;;12.82;11.63;;;;;;;16.18;75.66;100882.47;3539236;40;20428;-64
2023/07/21 06:00:39;;;;;;;13.23;11.82;;;;;;;16.33;74.31;100886.56;3534423;40;20058;-64
2023/07/21 06:03:06;;;;;;;12.98;11.68;;;;;;;16.44;73.50;100891.94;3531560;40;20388;-65
2023/07/21 06:05:36;;;;;;;12.38;11.27;;;;;;;16.48;73.65;100879.81;3534859;40;20069;-65
2023/07/21 06:08:04;;;;;;;13.15;11.85;;;;;;;16.57;73.65;100882.75;3532781;40;20109;-65
2023/07/21 06:10:30;;;;;;;12.85;11.57;;;;;;;16.34;73.58;100834.03;3535842;40;20064;-65
2023/07/21 06:12:56;;;;;;;12.95;11.70;;;;;;;16.79;72.27;100896.22;3535170;40;20050;-65
2023/07/21 06:15:24;;;;;;;12.18;11.07;;;;;;;16.81;72.16;100885.19;3535357;40;20331;-65
2023/07/21 06:17:52;;;;;;;13.27;11.98;;;;;;;16.93;70.47;100889.56;3533304;40;20356;-66
2023/07/21 06:20:20;;;;;;;13.48;12.07;;;;;;;16.98;71.54;100890.03;3535730;40;20058;-65
2023/07/21 06:22:49;;;;;;;13.13;11.80;;;;;;;17.02;71.43;100887.91;3536396;40;20360;-65
2023/07/21 06:25:15;;;;;;;13.93;12.50;;;;;;;17.13;71.27;100890.56;3535323;40;20046;-65
2023/07/21 06:27:40;;;;;;;12.80;11.70;;;;;;;17.09;71.32;100859.19;3536446;40;20772;-65
2023/07/21 06:30:07;;;;;;;13.27;12.07;;;;;;;17.34;70.53;100872.31;3536805;40;20070;-66
2023/07/21 06:32:32;;;;;;;13.93;12.50;;;;;;;17.42;70.15;100868.06;3533806;40;20058;-66
2023/07/21 06:35:03;;;;;;;14.30;11.95;;;;;;;17.56;69.39;100886.69;3533972;40;20090;-65
2023/07/21 06:37:29;;;;;;;12.68;11.48;;;;;;;17.64;69.59;100886.88;3536676;40;20054;-66
2023/07/21 06:39:54;;;;;;;12.63;11.43;;;;;;;17.70;69.36;100883.59;3534880;40;20122;-66
2023/07/21 06:42:20;;;;;;;14.50;12.73;;;;;;;17.66;68.89;100870.41;3539512;40;20073;-66
2023/07/21 06:44:46;;;;;;;12.80;11.52;;;;;;;17.86;69.21;100888.53;3534773;40;20110;-66
2023/07/21 06:47:14;;;;;;;13.05;10.85;;;;;;;17.96;68.82;100877.66;3534904;40;20058;-66
2023/07/21 06:49:39;;;;;;;12.43;11.32;;;;;;;18.13;67.96;100885.09;3536525;40;20046;-66
2023/07/21 06:52:06;;;;;;;12.02;10.95;;;;;;;18.09;68.09;100853.75;3535721;40;20058;-66
2023/07/21 06:54:32;;;;;;;12.40;11.20;;;;;;;18.41;68.28;100885.25;3536496;40;20089;-66
2023/07/21 06:57:00;;;;;;;13.25;10.95;;;;;;;17.98;66.80;100803.09;3533888;40;20390;-66
2023/07/21 06:59:26;;;;;;;12.25;11.05;;;;;;;18.54;66.49;100883.09;3531577;40;21480;-65
2023/07/21 07:01:52;;;;;;;11.90;10.80;;;;;;;18.67;66.84;100878.19;3534834;40;20055;-66
2023/07/21 07:04:17;;;;;;;11.80;10.55;;;;;;;18.82;66.64;100870.47;3535448;40;20059;-66
2023/07/21 07:06:43;;;;;;;11.57;10.55;;;;;;;18.94;66.25;100879.34;3535290;40;20050;-66
2023/07/21 07:09:09;;;;;;;16.08;11.10;;;;;;;19.06;65.93;100877.25;3535260;40;20337;-66
2023/07/21 07:11:35;;;;;;;13.00;11.15;;;;;;;19.10;65.71;100867.81;3536008;40;20388;-66
2023/07/21 07:14:01;;;;;;;12.95;11.70;;;;;;;19.02;65.23;100861.22;3533139;40;20072;-67
2023/07/21 07:16:26;;;;;;;13.52;12.13;;;;;;;19.18;64.35;100870.63;3533870;40;20073;-64
2023/07/21 07:18:52;;;;;;;15.07;13.52;;;;;;;19.26;64.32;100873.47;3536030;40;20056;-64
2023/07/21 07:21:20;;;;;;;15.07;13.48;;;;;;;19.37;65.29;100866.97;3534127;40;20094;-66
2023/07/21 07:23:46;;;;;;;16.48;14.52;;;;;;;19.46;64.15;100863.31;3533367;40;20051;-66
2023/07/21 07:26:12;;;;;;;17.17;15.45;;;;;;;19.14;64.19;100799.22;3539478;40;20085;-66
2023/07/21 07:28:39;;;;;;;18.42;15.98;;;;;;;19.72;63.52;100868.94;3537382;40;20065;-65
2023/07/21 07:31:06;;;;;;;18.08;16.17;;;;;;;19.41;62.53;100786.59;3533138;40;20389;-65
2023/07/21 07:33:32;;;;;;;16.58;14.80;;;;;;;20.07;61.73;100868.13;3535072;40;20089;-65
2023/07/21 07:35:59;;;;;;;14.85;13.18;;;;;;;20.23;61.33;100869.28;3534777;40;20589;-66
2023/07/21 07:38:28;;;;;;;15.48;13.88;;;;;;;20.44;61.17;100863.53;3534593;40;20050;-65
2023/07/21 07:41:09;;;;;;;14.70;13.15;;;;;;;20.61;59.75;100870.84;3534063;40;20120;-65
2023/07/21 07:43:36;;;;;;;14.88;13.40;;;;;;;20.31;58.62;100791.06;3534148;40;20061;-65
2023/07/21 07:46:05;;;;;;;13.70;12.25;;;;;;;20.96;58.61;100874.50;3534223;40;20129;-65
2023/07/21 07:48:33;;;;;;;12.85;11.57;;;;;;;21.13;56.91;100870.00;3531901;40;20047;-65
2023/07/21 07:51:07;;;;;;;13.23;11.88;;;;;;;21.35;58.33;100880.41;3532917;40;20345;-65
2023/07/21 07:53:35;;;;;;;12.77;11.40;;;;;;;21.16;56.18;100825.94;3534578;40;20386;-65
2023/07/21 07:56:01;;;;;;;13.57;11.68;;;;;;;21.51;54.88;100872.25;3533916;40;20058;-65
2023/07/21 07:58:27;;;;;;;11.02;9.95;;;;;;;21.70;54.29;100878.50;3533600;40;20046;-65
2023/07/21 08:01:01;;;;;;;12.23;10.90;;;;;;;21.79;54.60;100883.81;3532732;40;20389;-65
2023/07/21 08:03:26;;;;;;;11.48;10.38;;;;;;;21.83;53.83;100884.34;3534165;40;20059;-65
2023/07/21 08:05:52;;;;;;;12.13;10.80;;;;;;;21.91;53.94;100887.09;3540027;40;20050;-64
2023/07/21 08:08:20;;;;;;;10.40;9.25;;;;;;;21.99;53.54;100884.38;3539246;40;20097;-66
2023/07/21 08:10:46;;;;;;;10.15;8.93;;;;;;;22.02;52.03;100878.56;3537159;40;20081;-63
2023/07/21 08:13:11;;;;;;;12.80;10.57;;;;;;;21.48;52.48;100792.41;3536575;40;20309;-64
2023/07/21 08:15:42;;;;;;;11.35;10.25;;;;;;;21.99;53.72;100878.91;3537823;40;20057;-63
2023/07/21 08:18:10;;;;;;;8.93;8.13;;;;;;;21.68;53.01;100803.91;3533874;40;20110;-63
2023/07/21 08:20:37;;;;;;;10.65;9.00;;;;;;;22.13;52.08;100860.94;3535080;40;20066;-64
2023/07/21 08:23:04;;;;;;;11.25;9.93;;;;;;;22.22;50.96;100879.13;3532192;40;20298;-63
2023/07/21 08:25:30;;;;;;;10.52;9.43;;;;;;;22.11;51.74;100851.22;3534179;40;20495;-64
2023/07/21 08:27:55;;;;;;;10.43;8.65;;;;;;;22.28;51.52;100871.28;3537341;40;20293;-64
2023/07/21 08:30:21;;;;;;;10.90;8.93;;;;;;;22.34;51.82;100859.66;3531602;40;20054;-64
2023/07/21 08:32:47;;;;;;;10.45;8.13;;;;;;;21.98;50.94;100794.22;3534449;40;20125;-64
2023/07/21 08:35:13;;;;;;;9.50;8.50;;;;;;;22.50;51.08;100872.47;3531802;40;20385;-64
2023/07/21 08:37:38;;;;;;;9.55;8.55;;;;;;;22.52;50.99;100870.41;3531384;40;20659;-64
2023/07/21 08:40:06;;;;;;;10.70;9.60;;;;;;;22.46;51.65;100875.56;3533988;40;20058;-63
2023/07/21 08:42:35;;;;;;;11.20;10.10;;;;;;;22.46;50.67;100875.56;3536823;40;20093;-64
2023/07/21 08:45:06;;;;;;;11.85;10.57;;;;;;;22.06;50.59;100807.06;3544384;40;20101;-64
2023/07/21 08:47:33;;;;;;;10.15;9.15;;;;;;;22.45;50.12;100873.88;3533937;40;20485;-64
2023/07/21 08:49:59;;;;;;;9.05;8.15;;;;;;;22.52;49.78;100878.63;3533461;40;20066;-64
2023/07/21 08:52:25;;;;;;;9.98;7.57;;;;;;;22.61;49.67;100877.59;3534491;40;20297;-63
2023/07/21 08:54:51;;;;;;;8.48;7.55;;;;;;;22.62;48.74;100880.19;3534185;40;20058;-64
2023/07/21 08:57:18;;;;;;;8.85;7.95;;;;;;;22.63;49.24;100881.88;3530953;40;20063;-63
2023/07/21 08:59:44;;;;;;;8.77;7.88;;;;;;;22.60;48.53;100884.13;3534400;40;20054;-63
2023/07/21 09:02:10;;;;;;;9.02;7.18;;;;;;;22.45;48.68;100889.41;3532574;40;20081;-64
2023/07/21 09:04:37;;;;;;;7.10;6.50;;;;;;;22.32;48.29;100876.22;3537829;40;20109;-63
2023/07/21 09:07:03;;;;;;;8.25;7.45;;;;;;;21.93;49.32;100824.81;3538745;40;20058;-63
2023/07/21 09:09:32;;;;;;;8.70;7.90;;;;;;;22.19;49.72;100881.34;3533531;40;20105;-63
2023/07/21 09:12:07;;;;;;;9.55;8.60;;;;;;;22.07;49.55;100879.94;3538548;40;20352;-63
2023/07/21 09:14:44;;;;;;;10.38;9.35;;;;;;;21.91;49.81;100892.56;3533466;40;20402;-63
2023/07/21 09:17:13;;;;;;;9.48;8.57;;;;;;;21.83;50.75;100878.03;3534165;40;20071;-63
2023/07/21 09:19:42;;;;;;;14.32;11.20;;;;;;;21.75;51.04;100879.69;3534802;40;20354;-63
2023/07/21 09:22:10;;;;;;;13.45;10.20;;;;;;;21.85;51.77;100876.84;3533761;40;20394;-63
2023/07/21 09:24:39;;;;;;;12.90;10.82;;;;;;;22.11;52.00;100870.38;3535077;40;20062;-64
2023/07/21 09:27:19;;;;;;;17.02;13.02;;;;;;;22.46;51.09;100872.81;3536674;40;20058;-64
2023/07/21 09:29:46;;;;;;;15.88;13.90;;;;;;;22.81;49.95;100862.53;3535044;40;20066;-64
2023/07/21 09:32:15;;;;;;;14.98;12.73;;;;;;;23.05;49.91;100855.28;3532753;40;21329;-64
2023/07/21 09:35:02;;;;;;;13.63;12.27;;;;;;;23.22;48.67;100859.72;3533043;40;20138;-64
2023/07/21 09:37:33;;;;;;;14.98;10.07;;;;;;;23.58;49.22;100848.25;3532665;40;20053;-64
2023/07/21 09:40:05;;;;;;;13.18;11.88;;;;;;;23.90;47.33;100858.22;3537266;40;20058;-64
2023/07/21 09:42:32;;;;;;;13.55;12.15;;;;;;;24.14;45.89;100848.97;3538538;40;20054;-64
2023/07/21 09:44:58;;;;;;;11.93;10.70;;;;;;;24.43;44.90;100848.25;3533676;40;20077;-64
2023/07/21 09:47:25;;;;;;;13.18;11.52;;;;;;;24.36;44.03;100767.56;3537106;40;20057;-64
2023/07/21 09:49:54;;;;;;;14.05;12.55;;;;;;;24.97;44.71;100836.19;3535192;40;20120;-64
2023/07/21 09:52:22;;;;;;;12.93;11.60;;;;;;;25.20;43.57;100839.72;3546715;40;20058;-64
2023/07/21 09:55:07;;;;;;;13.15;11.05;;;;;;;25.32;42.58;100842.88;3535564;40;20097;-64
2023/07/21 09:57:37;;;;;;;10.55;9.45;;;;;;;25.27;43.16;100837.06;3530352;40;20055;-64
2023/07/21 10:00:10;;;;;;;8.65;7.20;;;;;;;25.01;41.73;100845.78;3537902;40;20073;-64
2023/07/21 10:02:36;;;;;;;8.85;7.78;;;;;;;24.81;42.00;100839.97;3532797;40;20046;-64
2023/07/21 10:05:06;;;;;;;9.65;8.65;;;;;;;24.47;42.62;100834.97;3534948;40;20051;-64
2023/07/21 10:07:33;;;;;;;8.95;8.10;;;;;;;24.27;44.14;100849.19;3533513;40;20058;-64
2023/07/21 10:10:05;;;;;;;8.88;7.97;;;;;;;23.95;44.14;100843.94;3533244;40;20062;-64
2023/07/21 10:12:50;;;;;;;9.75;8.77;;;;;;;23.35;44.00;100788.69;3532850;40;20058;-64
2023/07/21 10:15:21;;;;;;;11.00;9.05;;;;;;;23.46;45.79;100846.91;3536112;40;20064;-64
2023/07/21 10:18:07;;;;;;;12.07;9.65;;;;;;;23.26;47.02;100858.31;3535972;40;20456;-64
2023/07/21 10:20:41;;;;;;;12.05;10.85;;;;;;;22.97;49.29;100845.22;3533222;40;20094;-64
2023/07/21 10:23:10;;;;;;;10.55;9.55;;;;;;;22.20;51.63;100770.78;3537122;40;20066;-64
2023/07/21 10:25:50;;;;;;;10.73;9.63;;;;;;;22.38;53.74;100848.16;3537412;40;20180;-64
2023/07/21 10:28:43;;;;;;;12.57;11.13;;;;;;;22.08;56.06;100849.66;3540449;40;20066;-65
2023/07/21 10:31:24;;;;;;;14.20;12.85;;;;;;;21.79;58.07;100859.19;3534743;40;20136;-66
2023/07/21 10:34:13;;;;;;;16.33;14.73;;;;;;;21.55;61.36;100862.69;3536635;40;20062;-68
2023/07/21 10:36:48;;;;;;;18.40;15.68;;;;;;;21.31;62.85;100871.63;3538344;40;20088;-65
2023/07/21 10:39:20;;;;;;;20.20;17.23;;;;;;;20.50;64.55;100798.19;3538272;40;20132;-66
2023/07/21 10:41:52;;;;;;;21.75;18.88;;;;;;;20.44;67.67;100886.22;3534201;40;20092;-67
2023/07/21 10:44:19;;;;;;;22.70;20.00;;;;;;;19.77;69.32;100865.78;3535985;40;20062;-66
2023/07/21 10:46:51;;;;;;;15.95;14.20;;;;;;;19.39;68.12;100873.97;3532197;40;20847;-65
2023/07/21 10:49:19;;;;;;;15.88;12.45;;;;;;;18.92;69.28;100871.28;3532945;40;20046;-65
2023/07/21 10:51:48;;;;;;;16.15;14.45;;;;;;;18.44;73.41;100822.38;3533612;40;20046;-66
2023/07/21 10:54:16;;;;;;;17.42;15.52;;;;;;;18.65;75.55;100882.06;3538796;40;20065;-66
2023/07/21 10:56:46;;;;;;;18.75;16.30;;;;;;;18.53;76.66;100886.84;3531476;40;20062;-65
2023/07/21 10:59:14;;;;;;;37.40;33.40;;;;;;;17.96;77.02;100804.22;3532426;40;20378;-64
2023/07/21 11:01:50;;;;;;;23.83;21.42;;;;;;;18.45;78.55;100889.41;3535982;40;20062;-64
2023/07/21 11:04:18;;;;;;;20.63;18.58;;;;;;;18.47;79.08;100893.72;3536510;40;20062;-64
2023/07/21 11:06:48;;;;;;;16.30;14.57;;;;;;;18.46;78.16;100891.16;3537194;40;20063;-65
2023/07/21 11:09:16;;;;;;;9.85;8.93;;;;;;;18.31;75.81;100899.72;3535053;40;20050;-63
2023/07/21 11:11:45;;;;;;;9.00;8.13;;;;;;;18.14;75.21;100908.63;3535467;40;20066;-64
2023/07/21 11:14:12;;;;;;;8.98;8.13;;;;;;;18.01;76.80;100902.56;3535311;40;20054;-64
2023/07/21 11:16:59;;;;;;;7.72;7.03;;;;;;;17.84;75.92;100907.69;3534934;40;20400;-64
2023/07/21 11:19:28;;;;;;;7.22;6.63;;;;;;;17.88;75.90;100915.56;3537269;40;20045;-64
2023/07/21 11:21:55;;;;;;;8.10;7.40;;;;;;;17.92;77.50;100917.00;3533806;40;20069;-64